Time;durP1;ratioP1;P1;durP2;ratioP2;P2;SDS_P1;SDS_P2;PMS_P1;PMS_P2;Temp;Humidity;BMP_temperature;BMP_pressure;BME280_temperature;BME280_humidity;BME280_pressure;Samples;Min_cycle;Max_cycle;Signal;HPM_P1;HPM_P2
2023/02/24 00:01:27;;;;;;;3.72;1.67;;;4.80;79.40;;;;;;5023956;28;20493;-65
2023/02/24 00:03:59;;;;;;;2.92;1.13;;;4.70;79.40;;;;;;5027907;28;20416;-65
2023/02/24 00:06:34;;;;;;;3.25;1.92;;;4.70;79.40;;;;;;5048224;28;20075;-65
2023/02/24 00:09:01;;;;;;;5.22;1.17;;;4.70;79.50;;;;;;5046423;28;20025;-59
2023/02/24 00:11:27;;;;;;;1.25;0.73;;;4.70;79.60;;;;;;5047404;28;20032;-60
2023/02/24 00:13:53;;;;;;;1.75;1.30;;;4.70;79.60;;;;;;5036480;28;20124;-59
2023/02/24 00:16:19;;;;;;;4.43;1.42;;;4.70;79.70;;;;;;5040215;28;20036;-60
2023/02/24 00:18:45;;;;;;;1.13;0.98;;;4.70;79.70;;;;;;5023133;28;20030;-60
2023/02/24 00:21:14;;;;;;;2.33;1.23;;;4.70;79.60;;;;;;5042312;28;20021;-60
2023/02/24 00:23:41;;;;;;;2.38;1.05;;;4.70;79.50;;;;;;5055203;28;20021;-59
2023/02/24 00:26:09;;;;;;;3.30;1.40;;;4.60;79.50;;;;;;5029961;28;20028;-60
2023/02/24 00:28:36;;;;;;;8.18;1.67;;;4.70;79.80;;;;;;5042292;28;21178;-66
2023/02/24 00:31:06;;;;;;;3.53;1.63;;;4.60;79.70;;;;;;5045741;28;20036;-65
2023/02/24 00:33:33;;;;;;;2.13;1.23;;;4.60;79.70;;;;;;5049445;28;20033;-65
2023/02/24 00:36:14;;;;;;;2.25;1.48;;;4.60;79.70;;;;;;5049422;28;20029;-65
2023/02/24 00:38:45;;;;;;;0.90;0.77;;;4.60;79.80;;;;;;5043252;28;20029;-65
2023/02/24 00:41:14;;;;;;;2.35;1.00;;;4.50;79.80;;;;;;5046940;28;20037;-65
2023/02/24 00:43:47;;;;;;;2.78;0.85;;;4.50;79.70;;;;;;5048573;28;20446;-65
2023/02/24 00:46:21;;;;;;;4.10;0.98;;;4.50;79.80;;;;;;5027588;28;20027;-65
2023/02/24 00:48:48;;;;;;;2.70;1.58;;;4.50;79.70;;;;;;5024943;28;20538;-65
2023/02/24 00:51:16;;;;;;;2.88;1.60;;;4.40;79.80;;;;;;5048034;28;20021;-65
2023/02/24 00:53:43;;;;;;;5.15;1.13;;;4.40;79.80;;;;;;5048941;28;20026;-65
2023/02/24 00:56:15;;;;;;;3.33;1.40;;;4.40;79.80;;;;;;5048987;28;20116;-65
2023/02/24 00:58:42;;;;;;;1.35;1.00;;;4.30;79.70;;;;;;5048343;28;20052;-65
2023/02/24 01:01:16;;;;;;;4.70;1.02;;;4.30;79.50;;;;;;5047404;28;20029;-66
2023/02/24 01:03:47;;;;;;;4.40;1.40;;;4.30;79.50;;;;;;5047873;28;20033;-65
2023/02/24 01:06:13;;;;;;;1.33;1.05;;;4.20;79.60;;;;;;5049126;28;20025;-60
2023/02/24 01:08:46;;;;;;;1.88;1.15;;;4.20;79.70;;;;;;5048874;28;20028;-60
2023/02/24 01:13:58;;;;;;;5.70;1.35;;;4.20;79.60;;;;;;5047889;28;20087;-61
2023/02/24 01:16:23;;;;;;;3.15;1.50;;;4.10;79.60;;;;;;5044155;28;20053;-59
2023/02/24 01:18:49;;;;;;;3.70;1.30;;;4.10;79.70;;;;;;5047156;28;20107;-59
2023/02/24 01:21:16;;;;;;;3.25;1.63;;;4.10;79.80;;;;;;5048645;28;20369;-59
2023/02/24 01:23:45;;;;;;;5.15;1.60;;;4.10;79.80;;;;;;5047014;28;20025;-60
2023/02/24 01:26:11;;;;;;;2.58;0.95;;;4.00;79.80;;;;;;5047067;28;20426;-60
2023/02/24 01:28:36;;;;;;;3.25;1.77;;;4.00;79.90;;;;;;5061721;28;20025;-60
2023/02/24 01:31:04;;;;;;;1.80;1.20;;;4.00;79.90;;;;;;5061403;28;20033;-60
2023/02/24 01:33:32;;;;;;;2.13;1.67;;;4.00;79.90;;;;;;5049221;28;20044;-60
2023/02/24 01:36:08;;;;;;;4.40;1.35;;;3.90;80.40;;;;;;5048063;28;20546;-65
2023/02/24 01:38:35;;;;;;;5.25;1.38;;;4.00;79.90;;;;;;5044005;28;20025;-65
2023/02/24 01:41:05;;;;;;;2.67;1.10;;;3.90;79.70;;;;;;5047343;28;20065;-65
2023/02/24 01:43:54;;;;;;;2.30;0.88;;;3.90;79.70;;;;;;5044251;28;20071;-65
2023/02/24 01:46:23;;;;;;;1.58;1.13;;;3.90;79.70;;;;;;5047512;28;20388;-65
2023/02/24 01:48:52;;;;;;;3.90;1.55;;;3.90;79.70;;;;;;5025470;28;20021;-65
2023/02/24 01:51:19;;;;;;;2.47;1.70;;;3.80;79.70;;;;;;5046713;28;20044;-65
2023/02/24 01:53:45;;;;;;;3.78;1.10;;;3.80;79.80;;;;;;5059540;28;20033;-65
2023/02/24 01:56:12;;;;;;;3.60;1.52;;;3.80;79.80;;;;;;5042667;28;20029;-65
2023/02/24 01:58:39;;;;;;;6.38;0.95;;;3.80;79.70;;;;;;5047401;28;20119;-65
2023/02/24 02:01:08;;;;;;;2.20;1.58;;;3.80;79.80;;;;;;5047217;28;20029;-65
2023/02/24 02:03:40;;;;;;;1.73;1.45;;;3.80;79.80;;;;;;5046742;28;20530;-65
2023/02/24 02:06:11;;;;;;;3.90;1.58;;;3.70;79.70;;;;;;5046818;28;20529;-59
2023/02/24 02:08:40;;;;;;;6.65;1.50;;;3.70;79.70;;;;;;5063472;28;20029;-59
2023/02/24 02:11:11;;;;;;;5.57;1.58;;;3.70;79.70;;;;;;5048248;28;20029;-60
2023/02/24 02:13:43;;;;;;;3.88;1.80;;;3.70;79.70;;;;;;5051118;28;20021;-59
2023/02/24 02:16:37;;;;;;;1.88;0.93;;;3.70;79.70;;;;;;5050862;28;20377;-59
2023/02/24 02:19:45;;;;;;;4.80;1.67;;;3.70;79.50;;;;;;5046011;28;20119;-65
2023/02/24 02:22:25;;;;;;;1.40;0.85;;;3.60;79.70;;;;;;5049646;28;20025;-59
2023/02/24 02:25:17;;;;;;;7.20;1.73;;;3.60;79.80;;;;;;5042511;28;20063;-65
2023/02/24 02:27:50;;;;;;;5.28;1.83;;;3.50;79.80;;;;;;5049793;28;20021;-59
2023/02/24 02:30:42;;;;;;;1.98;1.38;;;3.50;80.60;;;;;;5046321;28;20504;-60
2023/02/24 02:33:46;;;;;;;0.85;0.85;;;3.50;80.20;;;;;;5051617;28;20487;-65
2023/02/24 02:36:43;;;;;;;3.30;1.52;;;3.50;80.10;;;;;;5052137;28;20029;-59
2023/02/24 02:39:19;;;;;;;1.90;1.13;;;3.50;80.20;;;;;;5047859;28;20029;-59
2023/02/24 02:42:00;;;;;;;5.65;1.38;;;3.50;80.20;;;;;;5043312;28;20049;-58
2023/02/24 02:44:39;;;;;;;2.70;1.10;;;3.40;80.20;;;;;;5042732;28;20055;-63
2023/02/24 02:47:19;;;;;;;4.07;1.20;;;3.40;80.20;;;;;;5043350;28;20653;-64
2023/02/24 02:49:50;;;;;;;2.47;1.17;;;3.40;80.20;;;;;;5041914;28;20044;-64
2023/02/24 02:52:32;;;;;;;9.68;1.35;;;3.40;80.30;;;;;;5046974;28;20031;-64
2023/02/24 02:55:13;;;;;;;3.67;2.05;;;3.40;80.10;;;;;;5040641;28;20036;-65
2023/02/24 02:57:46;;;;;;;5.18;1.38;;;3.40;80.10;;;;;;5041479;28;20089;-65
2023/02/24 03:00:22;;;;;;;5.22;1.33;;;3.40;80.20;;;;;;5051045;28;20499;-64
2023/02/24 03:02:56;;;;;;;6.07;1.40;;;3.40;80.10;;;;;;5048136;28;20033;-65
2023/02/24 03:05:28;;;;;;;1.95;1.33;;;3.40;80.00;;;;;;5049340;28;20047;-65
2023/02/24 03:07:57;;;;;;;2.42;1.35;;;3.40;80.10;;;;;;5050849;28;20408;-65
2023/02/24 03:10:26;;;;;;;3.20;1.30;;;3.40;80.00;;;;;;5045924;28;20017;-60
2023/02/24 03:12:56;;;;;;;4.97;1.75;;;3.30;80.00;;;;;;5042627;28;20625;-59
2023/02/24 03:15:24;;;;;;;3.15;1.25;;;3.30;79.90;;;;;;5061615;28;20036;-59
2023/02/24 03:18:17;;;;;;;1.42;1.17;;;3.30;79.90;;;;;;5049841;28;20071;-59
2023/02/24 03:20:58;;;;;;;1.63;0.85;;;3.30;79.80;;;;;;5045692;28;20035;-59
2023/02/24 03:23:29;;;;;;;2.03;1.25;;;3.30;79.80;;;;;;5030174;28;20033;-60
2023/02/24 03:26:17;;;;;;;3.95;1.00;;;3.30;79.70;;;;;;5046677;28;20029;-61
2023/02/24 03:29:22;;;;;;;8.23;1.88;;;3.30;79.70;;;;;;5050476;28;20058;-59
2023/02/24 03:31:58;;;;;;;3.22;1.48;;;3.30;79.70;;;;;;5037124;28;20056;-60
2023/02/24 03:34:41;;;;;;;2.15;1.15;;;3.30;79.80;;;;;;5051037;28;20439;-59
2023/02/24 03:37:07;;;;;;;4.57;1.58;;;3.20;79.80;;;;;;5049215;28;20021;-59
2023/02/24 03:39:33;;;;;;;3.45;1.17;;;3.20;79.80;;;;;;5049680;28;20036;-59
2023/02/24 03:42:27;;;;;;;5.38;1.27;;;3.20;79.70;;;;;;5047772;28;20072;-64
2023/02/24 03:44:57;;;;;;;1.55;1.05;;;3.30;79.60;;;;;;5048002;28;20036;-64
2023/02/24 03:47:23;;;;;;;4.72;1.38;;;3.20;79.70;;;;;;5048150;28;20574;-65
2023/02/24 03:49:49;;;;;;;2.15;0.88;;;3.30;79.60;;;;;;5049652;28;20056;-63
2023/02/24 03:52:46;;;;;;;2.95;1.55;;;3.20;79.70;;;;;;5049642;28;20070;-59
2023/02/24 03:55:16;;;;;;;2.25;1.50;;;3.30;79.70;;;;;;5044389;28;20107;-59
2023/02/24 03:58:11;;;;;;;3.42;1.30;;;3.20;79.90;;;;;;5048882;28;20043;-60
2023/02/24 04:01:04;;;;;;;3.05;1.63;;;3.20;79.80;;;;;;5060243;28;20396;-59
2023/02/24 04:03:56;;;;;;;4.00;1.70;;;3.20;79.90;;;;;;5031051;28;20056;-59
2023/02/24 04:06:34;;;;;;;2.10;0.98;;;3.20;79.90;;;;;;5047444;28;20025;-59
2023/02/24 04:09:35;;;;;;;4.75;0.93;;;3.20;79.90;;;;;;5046913;28;20025;-59
2023/02/24 04:12:30;;;;;;;9.85;1.77;;;3.20;79.80;;;;;;5039316;28;20082;-59
2023/02/24 04:15:07;;;;;;;1.60;1.08;;;3.20;79.90;;;;;;5036476;28;20044;-59
2023/02/24 04:17:54;;;;;;;2.50;1.13;;;3.20;79.80;;;;;;5039546;28;20029;-58
2023/02/24 04:20:23;;;;;;;2.60;0.95;;;3.20;79.70;;;;;;5046858;28;20048;-64
2023/02/24 04:22:53;;;;;;;1.67;1.10;;;3.20;79.90;;;;;;5040328;28;20025;-64
2023/02/24 04:25:23;;;;;;;9.30;1.20;;;3.20;79.90;;;;;;5047168;28;20036;-59
2023/02/24 04:27:55;;;;;;;2.08;0.63;;;3.20;79.90;;;;;;5040704;28;20021;-64
2023/02/24 04:30:25;;;;;;;1.13;0.82;;;3.30;79.90;;;;;;5048687;28;20480;-65
2023/02/24 04:32:51;;;;;;;2.30;1.23;;;3.30;79.90;;;;;;5040944;28;20021;-65
2023/02/24 04:35:20;;;;;;;4.82;1.63;;;3.30;79.80;;;;;;5043467;28;20037;-64
2023/02/24 04:37:45;;;;;;;3.13;1.17;;;3.30;79.70;;;;;;5046923;28;20013;-64
2023/02/24 04:40:17;;;;;;;1.63;1.02;;;3.40;79.80;;;;;;5043896;28;20035;-64
2023/02/24 04:42:47;;;;;;;6.30;1.00;;;3.40;79.70;;;;;;5049210;28;20429;-64
2023/02/24 04:45:16;;;;;;;5.65;1.35;;;3.40;79.70;;;;;;5049313;28;20027;-64
2023/02/24 04:47:49;;;;;;;1.10;1.00;;;3.40;79.80;;;;;;5039905;28;20105;-64
2023/02/24 04:50:21;;;;;;;2.65;1.13;;;3.40;79.80;;;;;;5040490;28;20021;-65
2023/02/24 04:52:53;;;;;;;2.25;0.75;;;3.40;79.80;;;;;;5037527;28;20030;-64
2023/02/24 04:55:21;;;;;;;1.35;0.88;;;3.40;79.80;;;;;;5046609;28;20036;-65
2023/02/24 04:57:56;;;;;;;4.25;1.00;;;3.40;79.80;;;;;;5046416;28;20045;-65
2023/02/24 05:00:25;;;;;;;1.20;1.10;;;3.40;79.90;;;;;;5047739;28;20676;-64
2023/02/24 05:02:53;;;;;;;7.03;1.38;;;3.50;80.00;;;;;;5034886;28;20468;-65
2023/02/24 05:05:24;;;;;;;1.33;0.90;;;3.50;80.00;;;;;;5045045;28;20051;-64
2023/02/24 05:07:54;;;;;;;5.40;1.75;;;3.50;80.10;;;;;;5046711;28;20083;-65
2023/02/24 05:10:26;;;;;;;7.55;1.63;;;3.60;80.30;;;;;;5043348;28;20148;-65
2023/02/24 05:12:58;;;;;;;0.90;0.90;;;3.60;80.30;;;;;;5048901;28;20079;-64
2023/02/24 05:15:31;;;;;;;2.97;1.65;;;3.60;80.40;;;;;;5045265;28;20033;-65
2023/02/24 05:17:59;;;;;;;3.58;1.73;;;3.60;80.50;;;;;;5024595;28;20045;-65
2023/02/24 05:23:10;;;;;;;3.10;1.48;;;3.60;81.00;;;;;;5045156;28;20416;-65
2023/02/24 05:25:36;;;;;;;3.15;1.40;;;3.60;81.40;;;;;;5047966;28;20551;-65
2023/02/24 05:28:06;;;;;;;4.35;1.65;;;3.60;81.40;;;;;;5048723;28;20033;-65
2023/02/24 05:30:31;;;;;;;2.67;1.55;;;3.70;81.70;;;;;;5048327;28;20047;-60
2023/02/24 05:32:58;;;;;;;4.53;2.42;;;3.80;81.90;;;;;;5047398;28;20721;-59
2023/02/24 05:35:24;;;;;;;2.90;2.17;;;3.80;81.90;;;;;;5047557;28;20531;-59
2023/02/24 05:37:50;;;;;;;2.90;1.30;;;3.80;82.00;;;;;;5048141;28;20369;-60
2023/02/24 05:40:21;;;;;;;2.30;1.23;;;3.80;82.00;;;;;;5042087;28;20047;-60
2023/02/24 05:42:47;;;;;;;3.65;2.10;;;3.90;82.10;;;;;;5045628;28;20412;-60
2023/02/24 05:45:13;;;;;;;6.38;2.13;;;3.90;82.00;;;;;;5048417;28;20079;-59
2023/02/24 05:47:39;;;;;;;7.90;2.00;;;3.90;82.00;;;;;;5029918;28;20044;-59
2023/02/24 05:50:08;;;;;;;14.63;1.67;;;3.90;81.90;;;;;;5049985;28;20090;-60
2023/02/24 05:52:35;;;;;;;5.88;1.63;;;3.90;81.90;;;;;;5046313;28;20206;-60
2023/02/24 05:55:05;;;;;;;7.75;1.90;;;4.00;81.90;;;;;;5051806;28;20123;-58
2023/02/24 05:57:34;;;;;;;5.05;1.63;;;4.00;81.80;;;;;;5052708;28;20083;-59
2023/02/24 06:00:08;;;;;;;5.53;1.92;;;4.00;81.70;;;;;;5046380;28;20037;-59
2023/02/24 06:02:36;;;;;;;5.25;2.20;;;4.00;81.60;;;;;;5031793;28;20056;-59
2023/02/24 06:05:03;;;;;;;5.28;1.70;;;4.10;81.60;;;;;;5050042;28;20049;-59
2023/02/24 06:07:33;;;;;;;2.17;1.85;;;4.00;81.60;;;;;;5048597;28;20442;-59
2023/02/24 06:10:00;;;;;;;4.25;1.38;;;4.00;81.70;;;;;;5051912;28;20518;-60
2023/02/24 06:12:33;;;;;;;2.53;1.40;;;4.00;81.70;;;;;;5051743;28;20029;-59
2023/02/24 06:14:59;;;;;;;6.97;1.55;;;4.10;81.70;;;;;;5049930;28;20028;-60
2023/02/24 06:17:26;;;;;;;2.50;1.35;;;4.10;81.70;;;;;;5049031;28;20083;-59
2023/02/24 06:19:53;;;;;;;4.78;2.33;;;4.10;81.70;;;;;;5047044;28;20489;-59
2023/02/24 06:22:21;;;;;;;6.63;2.55;;;4.10;81.90;;;;;;5051757;28;20048;-60
2023/02/24 06:24:48;;;;;;;1.75;1.38;;;4.10;82.00;;;;;;5047519;28;20017;-59
2023/02/24 06:27:17;;;;;;;7.50;2.67;;;4.00;82.00;;;;;;5047096;28;20074;-65
2023/02/24 06:29:50;;;;;;;4.95;2.13;;;4.00;82.10;;;;;;5046116;28;20059;-65
2023/02/24 06:32:17;;;;;;;12.32;2.35;;;4.00;82.20;;;;;;5051598;28;20072;-65
2023/02/24 06:34:43;;;;;;;4.05;1.67;;;4.10;82.20;;;;;;5052191;28;20030;-65
2023/02/24 06:37:12;;;;;;;7.63;1.70;;;4.10;82.10;;;;;;5051672;28;20025;-66
2023/02/24 06:39:38;;;;;;;5.03;2.05;;;4.10;81.90;;;;;;5050557;28;20017;-65
2023/02/24 06:42:07;;;;;;;4.90;1.35;;;4.20;82.00;;;;;;5048703;28;20036;-59
2023/02/24 06:44:36;;;;;;;3.60;1.92;;;4.20;82.00;;;;;;5029180;28;20078;-59
2023/02/24 06:47:04;;;;;;;4.00;1.92;;;4.20;81.80;;;;;;5045057;28;20022;-59
2023/02/24 06:49:30;;;;;;;3.83;1.80;;;4.20;81.90;;;;;;5049255;28;20147;-59
2023/02/24 06:51:56;;;;;;;6.50;1.92;;;4.30;81.90;;;;;;5046260;28;20069;-62
2023/02/24 06:54:27;;;;;;;8.10;1.55;;;4.30;81.80;;;;;;5050605;28;20553;-63
2023/02/24 06:56:53;;;;;;;2.83;1.58;;;4.30;81.80;;;;;;5037633;28;20547;-64
2023/02/24 06:59:21;;;;;;;2.58;1.80;;;4.40;81.80;;;;;;5041988;28;20112;-62
2023/02/24 07:01:48;;;;;;;4.07;1.73;;;4.40;81.70;;;;;;5037443;28;20415;-67
2023/02/24 07:06:52;;;;;;;4.90;2.92;;;4.40;81.70;;;;;;5049924;28;20555;-66
2023/02/24 07:09:23;;;;;;;2.05;1.35;;;4.50;81.70;;;;;;5052202;28;20025;-67
2023/02/24 07:11:51;;;;;;;3.30;1.47;;;4.50;81.60;;;;;;5052446;28;20387;-66
2023/02/24 07:14:22;;;;;;;6.43;2.03;;;4.50;81.60;;;;;;5049609;28;20264;-66
2023/02/24 07:16:52;;;;;;;1.92;1.45;;;4.50;81.50;;;;;;5037771;28;20104;-66
2023/02/24 07:19:21;;;;;;;4.60;2.03;;;4.60;81.50;;;;;;5032429;28;20041;-62
2023/02/24 07:21:48;;;;;;;6.38;2.00;;;4.60;81.50;;;;;;5045970;28;20711;-63
2023/02/24 07:24:23;;;;;;;4.20;1.80;;;4.50;81.50;;;;;;5058327;28;20033;-58
2023/02/24 07:26:57;;;;;;;2.58;1.23;;;4.60;81.60;;;;;;5022462;28;20043;-62
2023/02/24 07:29:29;;;;;;;8.55;2.10;;;4.60;81.50;;;;;;5049556;28;20104;-62
2023/02/24 07:32:00;;;;;;;4.57;1.83;;;4.60;81.40;;;;;;5049794;28;20021;-63
2023/02/24 07:34:27;;;;;;;2.63;1.92;;;4.60;81.30;;;;;;5045733;28;20015;-62
2023/02/24 07:36:54;;;;;;;4.68;1.95;;;4.60;81.30;;;;;;5042943;28;20579;-62
2023/02/24 07:39:24;;;;;;;3.53;2.08;;;4.70;81.20;;;;;;5050780;28;20060;-63
2023/02/24 07:41:51;;;;;;;2.80;1.90;;;4.70;81.20;;;;;;5050350;28;20087;-61
2023/02/24 07:44:19;;;;;;;3.88;1.80;;;4.70;81.20;;;;;;5050087;28;20112;-62
2023/02/24 07:46:47;;;;;;;3.95;1.58;;;4.70;81.20;;;;;;5062068;28;20056;-61
2023/02/24 07:49:17;;;;;;;3.47;2.03;;;4.70;81.00;;;;;;5048612;28;20463;-62
2023/02/24 07:51:42;;;;;;;6.82;2.63;;;4.80;81.00;;;;;;5065660;28;20021;-62
2023/02/24 07:54:10;;;;;;;2.38;1.08;;;4.90;81.00;;;;;;5048955;28;20031;-62
2023/02/24 07:56:44;;;;;;;5.43;1.25;;;4.90;81.00;;;;;;5047374;28;20057;-61
2023/02/24 07:59:14;;;;;;;2.30;1.08;;;5.00;80.90;;;;;;5044701;28;20443;-62
2023/02/24 08:01:48;;;;;;;6.80;1.90;;;5.00;80.80;;;;;;5050439;28;20025;-66
2023/02/24 08:04:16;;;;;;;7.22;1.85;;;5.00;80.80;;;;;;5050039;28;20061;-66
2023/02/24 08:06:43;;;;;;;6.43;1.67;;;5.00;80.90;;;;;;5043317;28;20499;-63
2023/02/24 08:09:17;;;;;;;11.57;1.50;;;5.00;80.90;;;;;;5049530;28;20033;-66
2023/02/24 08:11:57;;;;;;;4.53;1.48;;;5.10;80.90;;;;;;5047819;28;20472;-66
2023/02/24 08:14:24;;;;;;;9.20;0.98;;;5.10;80.90;;;;;;5045742;28;20039;-67
2023/02/24 08:16:58;;;;;;;3.65;1.15;;;5.10;80.90;;;;;;5047863;28;20370;-66
2023/02/24 08:19:31;;;;;;;5.47;1.27;;;5.20;81.00;;;;;;5048006;28;20036;-66
2023/02/24 08:22:18;;;;;;;3.78;1.33;;;5.20;81.00;;;;;;5047837;28;20052;-66
2023/02/24 08:24:48;;;;;;;6.65;1.90;;;5.20;81.10;;;;;;5049298;28;20223;-66
2023/02/24 08:27:21;;;;;;;2.67;1.52;;;5.30;81.40;;;;;;5049534;28;20610;-66
2023/02/24 08:30:01;;;;;;;3.58;1.30;;;5.30;81.50;;;;;;5045847;28;20025;-67
2023/02/24 08:32:32;;;;;;;2.05;1.15;;;5.30;81.50;;;;;;5044416;28;20044;-65
2023/02/24 08:35:01;;;;;;;7.70;1.20;;;5.40;81.60;;;;;;5043735;28;20324;-65
2023/02/24 08:37:33;;;;;;;10.98;1.27;;;5.40;81.50;;;;;;5045480;28;20033;-59
2023/02/24 08:39:59;;;;;;;5.05;2.45;;;5.40;81.50;;;;;;5047469;28;20032;-59
2023/02/24 08:42:33;;;;;;;4.47;2.00;;;5.40;81.70;;;;;;5047421;28;20432;-59
2023/02/24 08:45:00;;;;;;;2.88;1.60;;;5.40;81.80;;;;;;5047342;28;20021;-60
2023/02/24 08:47:29;;;;;;;2.97;1.48;;;5.40;82.10;;;;;;5049424;28;20048;-65
2023/02/24 08:49:58;;;;;;;2.85;1.40;;;5.50;82.10;;;;;;5047886;28;20393;-65
2023/02/24 08:52:26;;;;;;;3.10;1.38;;;5.50;82.20;;;;;;5048255;28;20095;-65
2023/02/24 08:54:57;;;;;;;1.55;1.08;;;5.50;82.20;;;;;;5048913;28;20477;-65
2023/02/24 08:57:25;;;;;;;4.35;1.10;;;5.50;82.20;;;;;;5046984;28;20145;-65
2023/02/24 08:59:56;;;;;;;1.90;1.15;;;5.60;82.30;;;;;;5031099;28;20048;-65
2023/02/24 09:02:28;;;;;;;6.15;1.20;;;5.60;82.30;;;;;;5047117;28;20395;-65
2023/02/24 09:04:58;;;;;;;1.90;0.80;;;5.60;82.30;;;;;;5045283;28;20083;-65
2023/02/24 09:07:34;;;;;;;1.33;1.13;;;5.60;82.30;;;;;;5043240;28;20013;-69
2023/02/24 09:10:00;;;;;;;1.58;0.82;;;5.60;82.60;;;;;;5042069;28;20043;-66
2023/02/24 09:12:28;;;;;;;5.72;1.08;;;5.60;82.60;;;;;;5025933;28;20374;-65
2023/02/24 09:15:01;;;;;;;3.53;1.70;;;5.60;82.70;;;;;;5046762;28;20037;-65
2023/02/24 09:20:35;;;;;;;3.67;2.00;;;5.60;83.10;;;;;;5038198;28;19928;-66
2023/02/24 09:23:06;;;;;;;1.30;1.15;;;5.60;83.30;;;;;;5025485;28;20045;-66
2023/02/24 09:25:39;;;;;;;5.60;1.27;;;5.60;83.40;;;;;;5043860;28;20024;-60
2023/02/24 09:28:16;;;;;;;6.38;1.38;;;5.60;83.40;;;;;;5050189;28;20035;-60
2023/02/24 09:31:03;;;;;;;3.03;0.98;;;5.70;83.50;;;;;;5038957;28;20025;-64
2023/02/24 09:33:40;;;;;;;1.85;1.35;;;5.70;83.50;;;;;;5037572;28;20464;-64
2023/02/24 09:36:09;;;;;;;1.55;1.00;;;5.70;83.90;;;;;;5045486;28;20147;-64
2023/02/24 09:41:52;;;;;;;10.63;2.08;;;5.80;84.10;;;;;;5053100;28;20488;-64
2023/02/24 09:44:47;;;;;;;3.00;1.60;;;5.80;84.20;;;;;;5040728;28;20035;-59
2023/02/24 09:47:38;;;;;;;4.82;1.27;;;5.80;84.20;;;;;;5015336;28;21365;-59
2023/02/24 09:50:19;;;;;;;13.10;1.58;;;5.90;84.50;;;;;;5030224;28;20036;-64
2023/02/24 09:52:54;;;;;;;3.80;1.20;;;5.90;84.30;;;;;;5041844;28;20028;-64
2023/02/24 09:55:59;;;;;;;1.65;1.25;;;6.00;84.40;;;;;;5028547;28;20044;-65
2023/02/24 09:59:09;;;;;;;5.20;1.23;;;6.00;84.30;;;;;;5043032;28;20032;-65
2023/02/24 10:02:08;;;;;;;9.07;1.80;;;6.10;84.20;;;;;;5024604;28;20472;-65
2023/02/24 10:04:52;;;;;;;2.90;1.42;;;6.10;84.30;;;;;;5012522;28;20040;-65
2023/02/24 10:07:37;;;;;;;4.22;1.50;;;6.20;84.20;;;;;;5041381;28;20150;-65
2023/02/24 10:10:28;;;;;;;6.80;1.67;;;6.20;84.30;;;;;;5027385;28;20415;-64
2023/02/24 10:13:01;;;;;;;4.25;1.88;;;6.20;84.30;;;;;;5038633;28;20033;-65
2023/02/24 10:18:28;;;;;;;3.20;1.20;;;6.20;84.30;;;;;;5033448;28;20482;-65
2023/02/24 10:21:47;;;;;;;2.67;1.58;;;6.20;84.40;;;;;;5039770;28;20511;-64
2023/02/24 10:24:28;;;;;;;2.15;1.15;;;6.30;84.40;;;;;;5053666;28;20037;-65
2023/02/24 10:27:26;;;;;;;3.45;1.42;;;6.30;84.50;;;;;;5040707;28;20033;-65
2023/02/24 10:30:18;;;;;;;9.20;2.25;;;6.30;84.60;;;;;;5037746;28;20749;-65
2023/02/24 10:32:53;;;;;;;2.08;1.65;;;6.40;84.70;;;;;;5039405;28;20037;-65
2023/02/24 10:35:24;;;;;;;3.20;1.67;;;6.30;85.00;;;;;;5047990;28;20032;-65
2023/02/24 10:37:51;;;;;;;3.53;1.63;;;6.30;85.00;;;;;;5043031;28;20120;-60
2023/02/24 10:40:42;;;;;;;1.58;1.48;;;6.40;85.00;;;;;;5045490;28;20557;-65
2023/02/24 10:43:16;;;;;;;2.45;1.38;;;6.40;85.00;;;;;;5039386;28;20048;-65
2023/02/24 10:45:44;;;;;;;7.35;2.03;;;6.40;85.10;;;;;;5040490;28;20102;-65
2023/02/24 10:48:23;;;;;;;3.10;1.88;;;6.40;85.20;;;;;;5045581;28;20032;-65
2023/02/24 10:50:53;;;;;;;6.13;1.63;;;6.50;85.30;;;;;;5048826;28;20020;-70
2023/02/24 10:53:25;;;;;;;4.43;2.00;;;6.50;85.40;;;;;;5042848;28;20082;-65
2023/02/24 10:55:52;;;;;;;3.10;1.75;;;6.50;85.40;;;;;;5040058;28;20057;-65
2023/02/24 10:58:43;;;;;;;4.40;1.77;;;6.50;85.50;;;;;;5042984;28;20045;-65
2023/02/24 11:01:39;;;;;;;2.72;1.67;;;6.50;85.60;;;;;;5034833;28;20021;-64
2023/02/24 11:04:21;;;;;;;8.45;2.55;;;6.60;85.80;;;;;;5032701;28;20037;-65
2023/02/24 11:06:54;;;;;;;;;;;6.60;86.10;;;;;;5038704;28;20368;-65
2023/02/24 11:17:56;;;;;;;3.38;2.17;;;6.60;86.30;;;;;;5042728;28;20063;-64
2023/02/24 11:20:42;;;;;;;3.97;2.05;;;6.70;86.20;;;;;;5041180;28;20100;-64
2023/02/24 11:23:15;;;;;;;7.00;2.42;;;6.70;86.40;;;;;;5040012;28;20047;-64
2023/02/24 11:25:45;;;;;;;3.63;2.15;;;6.70;86.40;;;;;;5028657;28;20025;-64
2023/02/24 11:28:32;;;;;;;4.40;2.13;;;6.80;86.70;;;;;;5060825;28;20117;-64
2023/02/24 11:31:18;;;;;;;4.10;2.67;;;6.80;86.50;;;;;;5038639;28;20340;-64
2023/02/24 11:33:56;;;;;;;5.32;2.70;;;6.90;86.60;;;;;;5044579;28;20468;-59
2023/02/24 11:36:38;;;;;;;3.60;1.98;;;6.90;86.80;;;;;;5039798;28;20870;-60
2023/02/24 11:39:30;;;;;;;5.80;2.00;;;6.90;86.60;;;;;;5034477;28;20924;-59
2023/02/24 11:42:01;;;;;;;5.70;2.63;;;6.90;86.70;;;;;;5033904;28;20037;-60
2023/02/24 11:44:38;;;;;;;4.25;2.50;;;6.90;87.00;;;;;;5030081;28;20588;-66
2023/02/24 11:47:12;;;;;;;5.30;2.55;;;6.90;87.00;;;;;;5042316;28;20027;-65
2023/02/24 11:49:52;;;;;;;3.97;2.17;;;7.00;87.10;;;;;;5038364;28;20224;-64
2023/02/24 11:52:29;;;;;;;3.83;2.15;;;7.00;87.00;;;;;;5041080;28;20033;-64
2023/02/24 11:54:57;;;;;;;5.32;2.42;;;7.00;87.20;;;;;;5033123;28;20021;-64
2023/02/24 11:57:36;;;;;;;6.35;2.47;;;7.00;87.20;;;;;;5043477;28;20029;-58
2023/02/24 12:00:15;;;;;;;5.03;2.72;;;7.00;87.40;;;;;;5036814;28;20036;-58
2023/02/24 12:02:51;;;;;;;7.47;2.85;;;7.00;87.50;;;;;;5053813;28;20610;-59
2023/02/24 12:05:25;;;;;;;3.85;2.17;;;6.90;87.70;;;;;;5039620;28;20053;-59
2023/02/24 12:08:01;;;;;;;4.50;2.00;;;7.00;87.80;;;;;;5041090;28;20080;-59
2023/02/24 12:10:32;;;;;;;5.03;2.75;;;7.00;87.70;;;;;;5046053;28;20076;-59
2023/02/24 12:12:58;;;;;;;4.00;2.78;;;7.00;87.90;;;;;;5040943;28;20480;-58
2023/02/24 12:15:45;;;;;;;4.30;2.55;;;7.00;88.20;;;;;;5044257;28;20036;-59
2023/02/24 12:18:16;;;;;;;4.30;2.50;;;7.10;88.10;;;;;;5035759;28;20071;-59
2023/02/24 12:21:05;;;;;;;4.25;2.20;;;7.20;88.20;;;;;;5048930;28;20037;-59
2023/02/24 12:23:46;;;;;;;5.47;2.10;;;7.20;88.10;;;;;;5044225;28;20031;-58
2023/02/24 12:26:14;;;;;;;5.03;2.42;;;7.30;88.00;;;;;;5042939;28;20095;-64
2023/02/24 12:29:21;;;;;;;2.67;2.30;;;7.30;88.10;;;;;;5048260;28;20037;-63
2023/02/24 12:32:05;;;;;;;7.20;2.53;;;7.40;88.10;;;;;;5048688;28;20938;-64
2023/02/24 12:34:45;;;;;;;2.05;1.70;;;7.40;88.20;;;;;;5047226;28;20048;-64
2023/02/24 12:38:25;;;;;;;6.30;2.22;;;7.40;88.20;;;;;;5046398;28;20040;-64
2023/02/24 12:41:08;;;;;;;3.80;2.28;;;7.40;88.40;;;;;;4913864;28;20061;-64
2023/02/24 12:43:33;;;;;;;;;;;7.40;88.60;;;;;;4950279;28;20442;-64
2023/02/24 12:46:14;;;;;;;4.45;2.80;;;7.50;88.70;;;;;;5007628;28;19912;-64
2023/02/24 12:49:00;;;;;;;3.60;1.77;;;7.50;88.60;;;;;;5049206;28;20035;-64
2023/02/24 12:51:36;;;;;;;1.90;1.60;;;7.60;88.50;;;;;;5046584;28;20025;-64
2023/02/24 12:54:22;;;;;;;9.30;2.15;;;7.60;88.20;;;;;;5048090;28;20051;-64
2023/02/24 12:57:06;;;;;;;3.88;1.75;;;7.70;88.10;;;;;;5044098;28;20037;-65
2023/02/24 12:59:38;;;;;;;2.33;1.45;;;7.70;88.20;;;;;;5043296;28;20536;-64
2023/02/24 13:02:06;;;;;;;4.95;2.00;;;7.80;88.30;;;;;;5031323;28;20468;-65
2023/02/24 13:04:35;;;;;;;2.42;1.77;;;7.90;88.20;;;;;;5049176;28;20094;-63
2023/02/24 13:07:30;;;;;;;5.18;1.95;;;8.10;87.90;;;;;;5047491;28;20052;-65
2023/02/24 13:10:26;;;;;;;7.53;2.38;;;8.30;87.70;;;;;;5039758;28;20096;-66
2023/02/24 13:13:03;;;;;;;6.22;2.60;;;8.60;86.90;;;;;;5023095;28;20652;-66
2023/02/24 13:15:31;;;;;;;2.65;1.88;;;8.70;86.70;;;;;;5042741;28;20042;-65
2023/02/24 13:17:58;;;;;;;3.10;2.17;;;8.70;86.60;;;;;;5062513;28;20036;-65
2023/02/24 13:20:37;;;;;;;4.30;2.05;;;8.80;86.60;;;;;;5044173;28;20036;-65
2023/02/24 13:23:19;;;;;;;4.80;2.15;;;9.00;86.50;;;;;;5041315;28;20388;-66
2023/02/24 13:25:53;;;;;;;3.90;2.40;;;9.30;85.90;;;;;;5043837;28;20032;-64
2023/02/24 13:28:32;;;;;;;3.35;2.03;;;9.40;85.20;;;;;;5044269;28;20024;-64
2023/02/24 13:31:07;;;;;;;2.78;1.77;;;9.50;85.20;;;;;;5045662;28;20033;-65
2023/02/24 13:33:43;;;;;;;4.28;2.33;;;9.40;85.10;;;;;;5041081;28;20025;-65
2023/02/24 13:36:12;;;;;;;3.15;1.90;;;9.40;85.40;;;;;;5041939;28;20033;-65
2023/02/24 13:38:42;;;;;;;3.55;2.15;;;9.40;85.30;;;;;;5046630;28;20032;-64
2023/02/24 13:41:21;;;;;;;5.80;2.42;;;9.30;85.30;;;;;;5024175;28;20427;-64
2023/02/24 13:43:55;;;;;;;8.35;2.10;;;9.30;85.50;;;;;;5040028;28;20083;-63
2023/02/24 13:46:21;;;;;;;10.35;2.45;;;9.20;85.70;;;;;;5046372;28;20032;-59
2023/02/24 13:49:13;;;;;;;2.35;1.70;;;9.20;86.10;;;;;;5044636;28;20104;-58
2023/02/24 13:51:52;;;;;;;4.32;2.13;;;9.10;86.10;;;;;;5039734;28;20033;-63
2023/02/24 13:54:49;;;;;;;4.90;2.20;;;9.10;85.90;;;;;;5043969;28;20061;-64
2023/02/24 13:57:33;;;;;;;2.38;1.73;;;9.10;86.00;;;;;;5043984;28;20078;-65
2023/02/24 14:00:39;;;;;;;4.80;2.28;;;9.10;86.20;;;;;;5046002;28;20044;-64
2023/02/24 14:03:11;;;;;;;2.33;1.42;;;9.20;86.10;;;;;;5040405;28;20032;-64